Time;durP1;ratioP1;P1;durP2;ratioP2;P2;SDS_P1;SDS_P2;PMS_P1;PMS_P2;Temp;Humidity;BMP_temperature;BMP_pressure;BME280_temperature;BME280_humidity;BME280_pressure;Samples;Min_cycle;Max_cycle;Signal;HPM_P1;HPM_P2
2022/08/08 00:00:31;;;;;;;;;;;;;;;;;;;;;
2022/08/08 00:03:56;;;;;;;3.83;2.35;;;12.80;99.90;;;;;;5038442;28;20678;-84
2022/08/08 00:28:40;;;;;;;5.55;4.18;;;12.60;99.90;;;;;;4938440;28;20110;-84
2022/08/08 00:31:15;;;;;;;5.90;4.18;;;12.40;99.90;;;;;;4985201;28;20653;-84
2022/08/08 00:33:50;;;;;;;4.50;3.03;;;12.20;99.90;;;;;;5024650;28;20404;-84
2022/08/08 00:36:26;;;;;;;5.77;4.80;;;12.20;99.90;;;;;;5043311;28;20115;-84
2022/08/08 00:39:04;;;;;;;4.97;3.80;;;12.00;99.90;;;;;;5052140;28;20037;-84
2022/08/08 00:41:48;;;;;;;4.80;3.22;;;11.90;99.90;;;;;;5033985;28;20080;-84
2022/08/08 00:44:34;;;;;;;6.18;4.32;;;11.80;99.90;;;;;;5052284;28;20040;-84
2022/08/08 00:47:36;;;;;;;8.15;4.57;;;11.80;99.90;;;;;;5032092;28;20037;-84
2022/08/08 00:50:28;;;;;;;4.57;4.18;;;11.80;99.90;;;;;;5034751;28;20403;-84
2022/08/08 00:53:17;;;;;;;5.68;4.22;;;11.90;99.90;;;;;;5035353;28;20552;-84
2022/08/08 00:56:22;;;;;;;4.75;3.53;;;11.90;99.90;;;;;;5040198;28;20053;-84
2022/08/08 00:59:22;;;;;;;3.83;3.00;;;11.80;99.90;;;;;;5055165;28;20058;-84
2022/08/08 01:02:18;;;;;;;6.47;3.78;;;11.80;99.90;;;;;;5058749;28;20481;-84
2022/08/08 01:05:02;;;;;;;8.85;5.07;;;11.80;99.90;;;;;;5039089;28;20499;-84
2022/08/08 01:07:52;;;;;;;15.95;9.57;;;11.80;99.90;;;;;;5046899;28;20117;-84
2022/08/08 01:10:42;;;;;;;10.70;4.00;;;11.80;99.90;;;;;;5045620;28;20491;-84
2022/08/08 01:13:35;;;;;;;4.07;3.53;;;11.80;99.90;;;;;;5040735;28;20044;-83
2022/08/08 01:16:37;;;;;;;5.13;3.28;;;11.70;99.90;;;;;;5045468;28;20087;-84
2022/08/08 01:19:27;;;;;;;5.50;4.80;;;11.80;99.90;;;;;;5047272;28;20052;-84
2022/08/08 01:22:21;;;;;;;5.30;4.13;;;11.80;99.90;;;;;;5042987;28;20043;-84
2022/08/08 01:25:08;;;;;;;6.85;5.75;;;11.80;99.90;;;;;;5033509;28;20033;-84
2022/08/08 01:27:49;;;;;;;8.02;6.25;;;11.80;99.90;;;;;;5051010;28;20041;-83
2022/08/08 01:30:40;;;;;;;5.97;4.70;;;11.80;99.90;;;;;;5049044;28;20037;-83
2022/08/08 01:33:43;;;;;;;7.07;5.35;;;11.80;99.90;;;;;;5048872;28;20127;-83
2022/08/08 01:36:46;;;;;;;7.85;4.95;;;11.80;99.90;;;;;;5047914;28;20041;-84
2022/08/08 01:39:28;;;;;;;6.00;5.00;;;11.70;99.90;;;;;;5049843;28;20120;-83
2022/08/08 01:42:19;;;;;;;6.55;4.30;;;11.60;99.90;;;;;;5043980;28;20034;-84
2022/08/08 01:45:01;;;;;;;6.65;3.90;;;11.60;99.90;;;;;;5028212;28;20033;-84
2022/08/08 01:47:49;;;;;;;4.88;4.38;;;11.70;99.90;;;;;;5041735;28;20040;-83
2022/08/08 01:50:31;;;;;;;5.10;3.75;;;11.80;99.90;;;;;;5049977;28;20328;-83
2022/08/08 01:53:14;;;;;;;5.78;3.83;;;11.80;99.90;;;;;;5046598;28;20123;-84
2022/08/08 01:55:59;;;;;;;5.50;3.78;;;11.80;99.90;;;;;;5046973;28;20450;-84
2022/08/08 01:58:50;;;;;;;5.60;4.22;;;11.80;99.90;;;;;;5025310;28;20033;-83
2022/08/08 02:01:36;;;;;;;4.53;3.33;;;11.80;99.90;;;;;;5029724;28;20491;-83
2022/08/08 02:04:25;;;;;;;6.82;4.70;;;11.80;99.90;;;;;;5034571;28;20041;-83
2022/08/08 02:07:22;;;;;;;6.07;4.65;;;11.70;99.90;;;;;;5019108;28;20140;-83
2022/08/08 02:09:59;;;;;;;6.70;4.95;;;11.50;99.90;;;;;;5044203;28;20040;-83
2022/08/08 02:12:46;;;;;;;5.72;4.35;;;11.50;99.90;;;;;;5049340;28;20048;-83
2022/08/08 02:15:37;;;;;;;6.65;4.93;;;11.40;99.90;;;;;;5034460;28;20124;-83
2022/08/08 02:18:16;;;;;;;7.80;6.10;;;11.40;99.90;;;;;;5048163;28;20047;-83
2022/08/08 02:23:58;;;;;;;8.50;6.72;;;11.20;99.90;;;;;;5040357;28;20128;-83
2022/08/08 02:26:30;;;;;;;9.07;6.72;;;11.30;99.90;;;;;;5031500;28;20037;-83
2022/08/08 02:29:10;;;;;;;9.60;5.38;;;11.20;99.90;;;;;;5029212;28;20068;-83
2022/08/08 02:32:14;;;;;;;5.95;5.20;;;11.20;99.90;;;;;;5033758;28;20400;-83
2022/08/08 02:34:59;;;;;;;9.52;5.35;;;11.20;99.90;;;;;;5008162;28;20132;-83
2022/08/08 02:37:39;;;;;;;7.55;6.18;;;11.20;99.90;;;;;;5050409;28;20036;-83
2022/08/08 02:40:21;;;;;;;5.45;4.07;;;11.20;99.90;;;;;;5019144;28;20120;-83
2022/08/08 02:43:37;;;;;;;8.02;4.63;;;11.20;99.90;;;;;;5022380;28;20045;-83
2022/08/08 02:46:12;;;;;;;5.90;4.70;;;11.20;99.90;;;;;;5007200;28;20053;-83
2022/08/08 02:49:12;;;;;;;5.65;4.05;;;11.20;99.90;;;;;;5020290;28;20048;-83
2022/08/08 02:51:57;;;;;;;6.47;3.92;;;11.20;99.90;;;;;;5041946;28;20037;-82
2022/08/08 02:54:25;;;;;;;7.05;3.38;;;11.30;99.90;;;;;;5032025;28;20049;-83
2022/08/08 02:57:30;;;;;;;4.70;3.60;;;11.30;99.90;;;;;;5034369;28;20148;-83
2022/08/08 03:00:22;;;;;;;4.47;3.35;;;11.30;99.90;;;;;;5018434;28;20054;-82
2022/08/08 03:03:25;;;;;;;3.97;3.20;;;11.30;99.90;;;;;;5048077;28;20407;-83
2022/08/08 03:06:18;;;;;;;8.80;4.55;;;11.30;99.90;;;;;;5030775;28;20395;-83
2022/08/08 03:09:18;;;;;;;4.10;3.38;;;11.30;99.90;;;;;;5047583;28;20429;-82
2022/08/08 03:12:07;;;;;;;3.80;3.13;;;11.30;99.90;;;;;;5041636;28;20041;-83
2022/08/08 03:14:55;;;;;;;5.00;3.05;;;11.30;99.90;;;;;;5050632;28;20036;-83
2022/08/08 03:17:39;;;;;;;4.60;2.55;;;11.30;99.90;;;;;;5050255;28;20041;-84
2022/08/08 03:22:33;;;;;;;5.40;3.47;;;11.20;99.90;;;;;;5054950;28;20044;-82
2022/08/08 03:25:05;;;;;;;4.25;3.70;;;11.20;99.90;;;;;;5054413;28;20040;-83
2022/08/08 03:27:39;;;;;;;4.57;3.83;;;11.10;99.90;;;;;;5054648;28;20094;-82
2022/08/08 03:30:13;;;;;;;4.55;4.15;;;11.00;99.90;;;;;;5049436;28;20041;-82
2022/08/08 03:35:25;;;;;;;4.88;3.70;;;10.90;99.90;;;;;;5054623;28;20041;-82
2022/08/08 03:37:51;;;;;;;4.53;3.58;;;10.90;99.90;;;;;;5055165;28;20049;-83
2022/08/08 03:40:21;;;;;;;7.05;4.10;;;10.90;99.90;;;;;;5056163;28;20037;-82
2022/08/08 03:42:48;;;;;;;4.22;3.55;;;10.90;99.90;;;;;;5038318;28;20144;-81
2022/08/08 03:45:15;;;;;;;4.57;2.97;;;10.80;99.90;;;;;;5056464;28;20059;-81
2022/08/08 03:47:40;;;;;;;4.15;3.15;;;10.80;99.90;;;;;;5056915;28;20048;-81
2022/08/08 03:50:18;;;;;;;4.60;2.83;;;10.80;99.90;;;;;;5051823;28;21560;-81
2022/08/08 03:52:43;;;;;;;3.13;2.38;;;10.90;99.90;;;;;;5050676;28;20037;-81
2022/08/08 03:55:14;;;;;;;3.63;2.72;;;10.80;99.90;;;;;;5050566;28;21605;-80
2022/08/08 03:57:54;;;;;;;3.50;2.70;;;10.90;99.90;;;;;;5048813;28;20116;-81
2022/08/08 04:00:22;;;;;;;8.40;4.32;;;10.80;99.90;;;;;;5050948;28;20041;-81
2022/08/08 04:03:03;;;;;;;6.57;3.38;;;10.80;99.90;;;;;;5051806;28;20041;-81
2022/08/08 04:05:35;;;;;;;4.35;3.03;;;10.80;99.90;;;;;;5037087;28;20079;-81
2022/08/08 04:08:01;;;;;;;7.32;2.70;;;10.80;99.90;;;;;;5051151;28;20454;-80
2022/08/08 04:10:29;;;;;;;3.22;2.92;;;10.90;99.90;;;;;;5056144;28;20107;-81
2022/08/08 04:12:55;;;;;;;2.83;2.35;;;10.90;99.90;;;;;;5055391;28;20036;-81
2022/08/08 04:15:21;;;;;;;3.80;2.80;;;10.90;99.90;;;;;;5037791;28;20760;-80
2022/08/08 04:17:47;;;;;;;6.22;4.05;;;11.00;99.90;;;;;;5054972;28;20037;-81
2022/08/08 04:20:12;;;;;;;4.40;3.13;;;11.00;99.90;;;;;;5054803;28;20100;-81
2022/08/08 04:22:38;;;;;;;3.17;2.85;;;10.90;99.90;;;;;;5055661;28;20048;-81
2022/08/08 04:25:06;;;;;;;3.58;3.13;;;11.00;99.90;;;;;;5058205;28;20048;-80
2022/08/08 04:27:32;;;;;;;3.50;2.75;;;11.00;99.90;;;;;;5039724;28;20044;-81
2022/08/08 04:29:57;;;;;;;4.55;2.88;;;11.00;99.90;;;;;;5056915;28;20033;-81
2022/08/08 04:32:23;;;;;;;4.85;2.28;;;11.00;99.90;;;;;;5055211;28;20044;-81
2022/08/08 04:34:49;;;;;;;4.35;3.22;;;11.00;99.90;;;;;;5052814;28;20446;-80
2022/08/08 04:37:14;;;;;;;6.47;4.65;;;11.00;99.90;;;;;;5052033;28;20052;-80
2022/08/08 04:39:40;;;;;;;3.05;2.75;;;11.00;99.90;;;;;;5053679;28;20131;-81
2022/08/08 04:42:07;;;;;;;2.97;2.15;;;10.90;99.90;;;;;;5037301;28;20056;-81
2022/08/08 04:44:32;;;;;;;2.88;2.30;;;10.90;99.90;;;;;;5054097;28;20144;-81
2022/08/08 04:46:58;;;;;;;4.25;2.83;;;10.90;99.90;;;;;;5055743;28;20084;-81
2022/08/08 04:49:24;;;;;;;15.95;3.60;;;11.00;99.90;;;;;;5049775;28;20036;-81
2022/08/08 04:51:49;;;;;;;4.13;3.42;;;11.00;99.90;;;;;;5054630;28;20487;-81
2022/08/08 04:54:15;;;;;;;5.85;3.40;;;11.00;99.90;;;;;;5037669;28;20096;-81
2022/08/08 04:56:41;;;;;;;3.97;3.15;;;11.10;99.90;;;;;;5055463;28;20044;-81
2022/08/08 04:59:06;;;;;;;4.93;3.28;;;11.10;99.90;;;;;;5054360;28;20033;-81
2022/08/08 05:01:32;;;;;;;3.72;2.65;;;11.20;99.90;;;;;;5054713;28;20103;-81
2022/08/08 05:03:57;;;;;;;4.45;3.17;;;11.20;99.90;;;;;;5058365;28;20040;-81
2022/08/08 05:06:23;;;;;;;1.98;1.55;;;11.30;99.90;;;;;;5048195;28;20064;-81
2022/08/08 05:08:49;;;;;;;4.85;2.60;;;11.40;99.90;;;;;;5054546;28;20333;-81
2022/08/08 05:11:14;;;;;;;12.07;3.63;;;11.50;99.90;;;;;;5050972;28;20037;-80
2022/08/08 05:13:40;;;;;;;4.35;3.17;;;11.50;99.90;;;;;;5055121;28;20064;-81
2022/08/08 05:16:06;;;;;;;5.30;3.05;;;11.60;99.90;;;;;;5055844;28;20037;-80
2022/08/08 05:18:32;;;;;;;4.30;2.85;;;11.60;99.90;;;;;;5052910;28;20048;-80
2022/08/08 05:21:02;;;;;;;5.22;2.88;;;11.70;99.90;;;;;;5036234;28;20091;-80
2022/08/08 05:23:27;;;;;;;3.20;2.20;;;11.70;99.90;;;;;;5050785;28;20037;-81
2022/08/08 05:25:53;;;;;;;5.63;2.97;;;11.70;99.90;;;;;;5055586;28;20127;-83
2022/08/08 05:28:19;;;;;;;2.92;2.30;;;11.80;99.90;;;;;;5049952;28;20131;-82
2022/08/08 05:30:44;;;;;;;4.18;2.85;;;11.80;99.90;;;;;;5050978;28;20039;-82
2022/08/08 05:33:10;;;;;;;8.15;3.47;;;11.90;99.90;;;;;;5035470;28;20044;-83
2022/08/08 05:35:44;;;;;;;4.72;3.03;;;11.90;99.90;;;;;;5028838;28;20124;-83
2022/08/08 05:38:14;;;;;;;5.13;3.13;;;11.90;99.90;;;;;;5048231;28;20128;-82
2022/08/08 05:40:45;;;;;;;6.60;3.53;;;12.00;99.90;;;;;;5052726;28;20045;-83
2022/08/08 05:43:27;;;;;;;3.80;3.08;;;12.00;99.90;;;;;;5049554;28;20044;-83
2022/08/08 05:45:59;;;;;;;5.70;2.63;;;12.10;99.90;;;;;;5049313;28;20388;-83
2022/08/08 05:48:25;;;;;;;4.60;2.40;;;12.20;99.90;;;;;;5046192;28;20043;-83
2022/08/08 05:50:52;;;;;;;6.75;3.15;;;12.20;99.90;;;;;;5047378;28;20029;-82
2022/08/08 05:53:24;;;;;;;5.68;2.70;;;12.30;99.90;;;;;;5047823;28;20152;-82
2022/08/08 05:55:52;;;;;;;8.15;3.33;;;12.40;99.90;;;;;;5028155;28;20586;-84
2022/08/08 05:58:18;;;;;;;4.90;2.95;;;12.40;99.90;;;;;;5048086;28;20044;-83
2022/08/08 06:00:46;;;;;;;3.55;2.83;;;12.50;99.90;;;;;;5031770;28;20036;-83
2022/08/08 06:03:15;;;;;;;8.00;2.55;;;12.60;99.90;;;;;;5049333;28;20033;-83
2022/08/08 06:05:51;;;;;;;3.42;2.40;;;12.70;99.90;;;;;;5029154;28;20139;-83
2022/08/08 06:08:29;;;;;;;3.83;2.35;;;12.70;99.90;;;;;;5031176;28;20041;-83
2022/08/08 06:10:57;;;;;;;5.32;2.85;;;12.80;99.90;;;;;;5045995;28;20036;-83
2022/08/08 06:13:23;;;;;;;3.38;2.58;;;12.80;99.90;;;;;;5032495;28;20072;-83
2022/08/08 06:15:53;;;;;;;5.00;3.20;;;12.90;99.90;;;;;;5048885;28;20037;-82
2022/08/08 06:18:20;;;;;;;5.43;4.72;;;13.00;99.90;;;;;;5048184;28;20047;-82
2022/08/08 06:20:46;;;;;;;10.93;4.13;;;13.20;99.90;;;;;;5039443;28;20045;-83
2022/08/08 06:23:12;;;;;;;8.25;4.85;;;13.30;99.90;;;;;;5034716;28;20049;-82
2022/08/08 06:25:42;;;;;;;19.27;5.85;;;13.50;99.90;;;;;;5046446;28;20119;-83
2022/08/08 06:28:14;;;;;;;18.30;6.50;;;13.70;99.90;;;;;;5042850;28;20127;-82
2022/08/08 06:30:43;;;;;;;18.48;6.38;;;14.00;99.90;;;;;;5045101;28;20071;-82
2022/08/08 06:33:11;;;;;;;8.55;5.53;;;14.30;99.90;;;;;;5053893;28;20037;-83
2022/08/08 06:35:45;;;;;;;7.88;4.28;;;14.50;99.90;;;;;;5036095;28;20114;-82
2022/08/08 06:38:18;;;;;;;13.73;4.80;;;14.80;99.90;;;;;;5043029;28;20041;-82
2022/08/08 06:40:47;;;;;;;10.95;5.90;;;15.00;99.90;;;;;;5026587;28;20467;-83
2022/08/08 06:43:17;;;;;;;4.82;3.92;;;15.30;99.90;;;;;;5055072;28;20043;-83
2022/08/08 06:45:43;;;;;;;6.80;5.30;;;15.60;99.90;;;;;;5062275;28;20045;-83
2022/08/08 06:48:08;;;;;;;8.10;3.97;;;15.80;99.90;;;;;;5032827;28;20051;-84
2022/08/08 06:50:35;;;;;;;9.02;3.85;;;16.00;99.90;;;;;;5050202;28;20124;-83
2022/08/08 06:53:01;;;;;;;5.97;3.10;;;16.30;99.90;;;;;;5050020;28;20105;-82
2022/08/08 06:55:28;;;;;;;5.95;2.38;;;16.50;99.90;;;;;;5049485;28;20037;-83
2022/08/08 06:57:54;;;;;;;9.13;2.72;;;16.80;99.90;;;;;;5050402;28;20199;-82
2022/08/08 07:00:19;;;;;;;4.60;2.88;;;17.10;99.90;;;;;;5050760;28;20423;-82
2022/08/08 07:02:53;;;;;;;5.25;2.35;;;17.50;99.90;;;;;;5049434;28;20060;-82
2022/08/08 07:05:24;;;;;;;13.43;3.40;;;17.70;99.90;;;;;;5043874;28;20120;-82
2022/08/08 07:08:04;;;;;;;4.75;2.03;;;18.10;99.90;;;;;;5048582;28;20098;-83
2022/08/08 07:10:37;;;;;;;6.82;2.70;;;18.50;99.90;;;;;;5044049;28;20033;-82
2022/08/08 07:13:06;;;;;;;4.35;1.30;;;18.70;99.90;;;;;;5027783;28;20051;-82
2022/08/08 07:16:03;;;;;;;6.85;2.10;;;18.90;99.90;;;;;;5044150;28;20037;-82
2022/08/08 07:18:44;;;;;;;6.22;1.83;;;19.00;99.90;;;;;;5043007;28;20377;-83
2022/08/08 07:21:15;;;;;;;3.88;1.30;;;19.20;99.90;;;;;;5049190;28;20045;-84
2022/08/08 07:24:12;;;;;;;5.78;1.95;;;19.30;99.90;;;;;;5054303;28;20052;-83
2022/08/08 07:26:40;;;;;;;4.65;1.35;;;19.50;99.90;;;;;;5047382;28;20050;-82
2022/08/08 07:29:05;;;;;;;2.47;0.80;;;19.50;99.90;;;;;;5055939;28;20041;-82
2022/08/08 07:31:32;;;;;;;6.47;1.42;;;19.50;99.90;;;;;;5046653;28;20041;-83
2022/08/08 07:33:58;;;;;;;8.00;2.08;;;19.60;99.90;;;;;;5051788;28;20090;-82
2022/08/08 07:36:25;;;;;;;2.92;0.60;;;19.70;99.90;;;;;;5052260;28;20115;-82
2022/08/08 07:38:51;;;;;;;2.33;0.73;;;19.80;99.90;;;;;;5048691;28;20154;-82
2022/08/08 07:41:18;;;;;;;3.33;0.93;;;20.00;99.90;;;;;;5053565;28;20502;-83
2022/08/08 07:43:44;;;;;;;4.97;0.88;;;20.10;99.90;;;;;;5058486;28;20036;-83
2022/08/08 07:46:10;;;;;;;2.38;0.50;;;20.00;99.90;;;;;;5052247;28;20552;-83
2022/08/08 07:48:36;;;;;;;4.05;0.75;;;20.00;99.90;;;;;;5051795;28;20072;-82
2022/08/08 07:51:02;;;;;;;6.22;1.15;;;20.10;99.90;;;;;;5065328;28;20048;-81
2022/08/08 07:53:48;;;;;;;5.28;0.88;;;20.20;99.90;;;;;;5063974;28;20029;-81
2022/08/08 07:56:16;;;;;;;2.40;0.63;;;20.20;99.90;;;;;;5049945;28;20492;-81
2022/08/08 07:58:44;;;;;;;3.85;1.15;;;20.10;99.90;;;;;;5051591;28;20070;-80
2022/08/08 08:01:16;;;;;;;4.25;0.55;;;20.30;99.90;;;;;;5047730;28;20037;-80
2022/08/08 08:03:50;;;;;;;3.45;0.80;;;20.50;99.90;;;;;;5047360;28;20411;-80
2022/08/08 08:06:18;;;;;;;2.08;0.73;;;20.50;99.90;;;;;;5051486;28;20115;-80
2022/08/08 08:09:05;;;;;;;7.78;1.00;;;20.50;99.90;;;;;;5036381;28;20040;-80
2022/08/08 08:11:34;;;;;;;4.70;0.85;;;20.50;99.90;;;;;;5053262;28;20095;-80
2022/08/08 08:14:05;;;;;;;3.03;0.80;;;20.50;99.90;;;;;;5052239;28;20455;-80
2022/08/08 08:16:37;;;;;;;2.92;0.80;;;20.60;99.90;;;;;;5049887;28;21575;-81
2022/08/08 08:19:08;;;;;;;2.40;0.68;;;20.70;99.90;;;;;;5050652;28;20033;-80
2022/08/08 08:21:45;;;;;;;1.38;0.50;;;20.90;99.90;;;;;;5051482;28;20041;-80
2022/08/08 08:24:11;;;;;;;2.55;0.50;;;21.20;99.90;;;;;;5052362;28;20475;-80
2022/08/08 08:26:39;;;;;;;5.97;1.10;;;21.50;99.90;;;;;;5055859;28;20044;-81
2022/08/08 08:29:04;;;;;;;3.83;0.65;;;21.80;99.90;;;;;;5061231;28;20028;-80
2022/08/08 08:31:30;;;;;;;1.85;0.40;;;21.90;99.90;;;;;;5058971;28;20041;-80
2022/08/08 08:33:56;;;;;;;2.75;0.65;;;22.20;99.90;;;;;;5058339;28;20237;-80
2022/08/08 08:36:23;;;;;;;2.00;0.63;;;22.30;99.90;;;;;;5059423;28;20548;-80
2022/08/08 08:38:49;;;;;;;2.75;0.55;;;22.60;99.90;;;;;;5065976;28;20045;-80
2022/08/08 08:41:17;;;;;;;4.40;1.58;;;22.90;99.90;;;;;;5080003;28;20494;-80
2022/08/08 08:43:45;;;;;;;3.67;0.98;;;23.30;99.90;;;;;;5079652;28;20032;-80
2022/08/08 08:46:11;;;;;;;3.28;0.30;;;23.70;99.90;;;;;;5078769;28;20372;-80
2022/08/08 08:48:40;;;;;;;1.45;0.57;;;23.70;99.90;;;;;;5063029;28;20045;-81
2022/08/08 08:51:13;;;;;;;1.73;0.70;;;23.70;99.90;;;;;;5079451;28;20162;-81
2022/08/08 08:53:51;;;;;;;3.03;0.60;;;23.70;99.90;;;;;;5068713;28;20036;-80
2022/08/08 08:56:19;;;;;;;4.63;0.50;;;23.70;99.90;;;;;;5057671;28;20089;-80
2022/08/08 08:58:47;;;;;;;3.42;0.40;;;23.80;99.90;;;;;;5058789;28;20093;-81
2022/08/08 09:01:19;;;;;;;3.22;0.40;;;23.80;99.90;;;;;;5058705;28;20033;-80
2022/08/08 09:03:47;;;;;;;1.15;0.38;;;23.70;99.90;;;;;;5054568;28;20045;-79
2022/08/08 09:06:17;;;;;;;1.50;0.30;;;23.70;99.90;;;;;;5054250;28;20045;-79
2022/08/08 09:08:45;;;;;;;2.50;0.50;;;23.60;99.90;;;;;;5054375;28;20048;-79
2022/08/08 09:11:13;;;;;;;1.50;0.30;;;23.50;99.90;;;;;;5054606;28;20069;-79
2022/08/08 09:13:40;;;;;;;3.22;0.50;;;23.50;99.90;;;;;;5054334;28;20444;-78
2022/08/08 09:16:07;;;;;;;1.92;0.68;;;23.70;99.90;;;;;;5036871;28;20048;-79
2022/08/08 09:18:33;;;;;;;2.53;0.93;;;24.10;99.90;;;;;;5033680;28;20049;-79
2022/08/08 09:21:01;;;;;;;2.58;0.28;;;24.60;99.90;;;;;;5033821;28;20041;-79
2022/08/08 09:23:31;;;;;;;3.65;0.40;;;25.10;99.90;;;;;;5034711;28;20052;-79
2022/08/08 09:26:04;;;;;;;1.60;0.30;;;25.50;98.40;;;;;;5034410;28;20384;-79
2022/08/08 09:28:37;;;;;;;1.88;0.30;;;26.00;98.00;;;;;;5032896;28;20103;-79
2022/08/08 09:31:11;;;;;;;2.50;0.38;;;26.20;97.20;;;;;;5053366;28;20063;-79
2022/08/08 09:33:40;;;;;;;0.98;0.20;;;26.20;94.80;;;;;;5053638;28;20036;-79
2022/08/08 09:36:09;;;;;;;2.05;0.30;;;26.00;93.80;;;;;;5037180;28;20040;-79
2022/08/08 09:38:58;;;;;;;1.52;0.30;;;25.60;93.40;;;;;;5054020;28;20041;-79
2022/08/08 09:41:38;;;;;;;1.98;0.28;;;25.40;94.70;;;;;;5053814;28;20476;-79
2022/08/08 09:44:19;;;;;;;1.90;0.30;;;25.00;96.60;;;;;;5053165;28;20056;-79
2022/08/08 09:46:47;;;;;;;1.73;0.40;;;24.60;98.10;;;;;;5053896;28;20053;-79
2022/08/08 09:49:16;;;;;;;5.53;0.30;;;24.40;99.50;;;;;;5038354;28;20040;-79
2022/08/08 09:51:42;;;;;;;1.80;0.30;;;24.10;99.90;;;;;;5056506;28;20062;-81
2022/08/08 09:54:08;;;;;;;1.70;0.40;;;23.90;99.90;;;;;;5059255;28;20100;-80
2022/08/08 09:56:36;;;;;;;4.35;0.47;;;23.60;99.90;;;;;;5059343;28;20087;-81
2022/08/08 09:59:04;;;;;;;3.58;0.55;;;23.40;99.90;;;;;;5059834;28;20041;-81
2022/08/08 10:01:32;;;;;;;2.25;0.40;;;23.10;99.90;;;;;;5042039;28;20041;-81
2022/08/08 10:03:59;;;;;;;2.05;0.43;;;22.80;99.90;;;;;;5059403;28;20102;-81
2022/08/08 10:06:25;;;;;;;1.60;0.30;;;22.70;99.90;;;;;;5059695;28;20073;-81
2022/08/08 10:08:52;;;;;;;1.17;0.30;;;22.70;99.90;;;;;;5058242;28;20092;-80
2022/08/08 10:11:22;;;;;;;4.15;0.50;;;22.60;99.90;;;;;;5060198;28;20045;-81
2022/08/08 10:13:58;;;;;;;1.55;0.73;;;22.60;99.90;;;;;;5039851;28;20155;-81
2022/08/08 10:16:35;;;;;;;4.00;0.30;;;22.60;99.90;;;;;;5061096;28;20586;-80
2022/08/08 10:19:03;;;;;;;4.47;0.95;;;22.70;99.90;;;;;;5057665;28;20505;-81
2022/08/08 10:21:35;;;;;;;2.17;0.30;;;22.70;99.90;;;;;;5061670;28;20481;-81
2022/08/08 10:24:06;;;;;;;3.10;0.50;;;22.90;99.90;;;;;;5059873;28;20036;-81
2022/08/08 10:26:38;;;;;;;2.92;0.28;;;23.30;99.90;;;;;;5067859;28;20044;-81
2022/08/08 10:29:07;;;;;;;2.50;0.25;;;23.70;99.90;;;;;;5066962;28;20029;-81
2022/08/08 10:34:21;;;;;;;3.97;0.20;;;23.60;99.40;;;;;;5050157;28;20044;-81
2022/08/08 10:36:48;;;;;;;0.73;0.20;;;23.60;98.70;;;;;;5065842;28;20525;-81
2022/08/08 10:39:20;;;;;;;2.63;0.40;;;23.80;99.00;;;;;;5074179;28;20063;-81
2022/08/08 10:42:01;;;;;;;1.70;0.20;;;23.90;97.90;;;;;;5075156;28;20063;-81
2022/08/08 10:44:39;;;;;;;1.83;0.30;;;23.90;97.20;;;;;;5065553;28;20128;-81
2022/08/08 10:47:12;;;;;;;0.68;0.20;;;24.00;98.10;;;;;;5061115;28;20098;-81
2022/08/08 10:49:41;;;;;;;1.63;0.30;;;24.30;98.00;;;;;;5060925;28;20045;-81
2022/08/08 10:52:07;;;;;;;3.05;0.20;;;24.50;96.60;;;;;;5051814;28;20069;-82
2022/08/08 10:54:32;;;;;;;0.70;0.20;;;24.60;96.10;;;;;;5062093;28;20044;-81
2022/08/08 10:56:59;;;;;;;4.60;0.38;;;24.80;95.30;;;;;;5059657;28;20047;-81
2022/08/08 10:59:26;;;;;;;2.80;0.40;;;24.80;95.10;;;;;;5051130;28;20103;-81
2022/08/08 11:01:52;;;;;;;1.65;0.40;;;25.00;95.50;;;;;;5062690;28;20072;-80
2022/08/08 11:04:18;;;;;;;1.65;0.20;;;25.00;95.60;;;;;;5072393;28;20356;-80
2022/08/08 11:06:44;;;;;;;1.00;0.20;;;25.10;94.90;;;;;;5072367;28;20048;-80
2022/08/08 11:09:11;;;;;;;2.17;0.28;;;25.00;95.70;;;;;;5060241;28;20055;-81
2022/08/08 11:11:45;;;;;;;6.47;2.17;;;25.00;93.40;;;;;;5055700;28;20045;-80
2022/08/08 11:14:13;;;;;;;1.95;0.20;;;25.00;92.20;;;;;;5059178;28;20043;-81
2022/08/08 11:16:44;;;;;;;3.30;0.30;;;24.90;92.70;;;;;;5065558;28;20495;-81
2022/08/08 11:19:10;;;;;;;2.15;0.50;;;24.80;92.10;;;;;;5066920;28;20086;-81
2022/08/08 11:21:40;;;;;;;0.95;0.20;;;24.90;92.10;;;;;;5056876;28;20059;-81
2022/08/08 11:24:08;;;;;;;1.38;0.32;;;25.00;91.50;;;;;;5054559;28;20045;-80
2022/08/08 11:26:37;;;;;;;2.00;0.30;;;25.20;91.90;;;;;;5054751;28;20048;-81
2022/08/08 11:29:04;;;;;;;1.42;0.20;;;25.30;91.70;;;;;;5049997;28;20033;-80
2022/08/08 11:31:37;;;;;;;0.70;0.10;;;25.40;90.80;;;;;;5063365;28;20040;-81
2022/08/08 11:34:04;;;;;;;2.58;0.20;;;25.30;90.20;;;;;;5036205;28;20060;-81
2022/08/08 11:36:32;;;;;;;2.45;0.10;;;25.00;89.00;;;;;;5035362;28;20089;-81
2022/08/08 11:38:58;;;;;;;2.20;0.10;;;24.80;88.80;;;;;;5059526;28;20045;-81
2022/08/08 11:41:24;;;;;;;1.00;0.52;;;24.70;91.10;;;;;;5039562;28;20508;-81
2022/08/08 11:43:55;;;;;;;1.55;0.20;;;24.80;91.80;;;;;;5042661;28;20080;-81
2022/08/08 11:46:23;;;;;;;1.20;0.10;;;24.90;91.70;;;;;;5051141;28;20045;-82
2022/08/08 11:48:50;;;;;;;0.40;0.10;;;24.80;91.00;;;;;;5052535;28;20086;-81
2022/08/08 11:51:17;;;;;;;1.48;0.20;;;24.70;90.30;;;;;;5043339;28;20530;-81
2022/08/08 11:53:43;;;;;;;0.75;0.10;;;24.60;91.30;;;;;;5056259;28;20048;-81
2022/08/08 11:56:18;;;;;;;0.95;0.10;;;24.50;92.20;;;;;;5056532;28;20036;-82
2022/08/08 11:58:44;;;;;;;1.92;0.30;;;24.60;91.00;;;;;;5057883;28;20055;-81
2022/08/08 12:01:10;;;;;;;4.05;0.20;;;24.60;91.60;;;;;;5057263;28;20060;-81
2022/08/08 12:03:41;;;;;;;2.10;0.20;;;24.70;91.90;;;;;;5058130;28;20048;-81
2022/08/08 12:06:12;;;;;;;2.10;0.20;;;24.60;92.50;;;;;;5040665;28;20045;-81
2022/08/08 12:08:38;;;;;;;1.63;0.20;;;24.50;93.80;;;;;;5060320;28;20125;-81
2022/08/08 12:11:11;;;;;;;11.15;0.60;;;24.40;94.10;;;;;;5074878;28;20098;-82
2022/08/08 12:13:36;;;;;;;1.02;0.25;;;24.40;93.60;;;;;;5065659;28;20396;-81
2022/08/08 12:16:07;;;;;;;2.35;0.50;;;24.60;94.30;;;;;;5077410;28;20054;-81
2022/08/08 12:18:53;;;;;;;1.58;0.20;;;24.80;94.40;;;;;;5076010;28;20135;-81
2022/08/08 12:21:22;;;;;;;3.50;0.35;;;25.10;93.70;;;;;;5056523;28;20051;-81
2022/08/08 12:23:49;;;;;;;1.35;0.20;;;25.30;93.30;;;;;;5057145;28;20049;-81
2022/08/08 12:26:20;;;;;;;1.98;0.50;;;25.40;93.30;;;;;;5058249;28;20045;-81
2022/08/08 12:28:58;;;;;;;0.98;0.20;;;25.40;93.30;;;;;;5056653;28;20041;-81
2022/08/08 12:31:33;;;;;;;1.65;0.30;;;25.30;91.90;;;;;;5055167;28;20049;-81
2022/08/08 12:34:00;;;;;;;2.08;0.32;;;25.20;91.70;;;;;;5054884;28;20079;-81
2022/08/08 12:36:38;;;;;;;1.00;0.20;;;25.20;92.40;;;;;;5046668;28;20041;-82
2022/08/08 12:39:03;;;;;;;1.58;0.30;;;25.40;93.00;;;;;;5035704;28;20128;-81
2022/08/08 12:41:29;;;;;;;1.15;0.30;;;25.50;92.80;;;;;;5034815;28;20033;-81
2022/08/08 12:44:07;;;;;;;1.55;0.40;;;25.80;93.30;;;;;;5035819;28;20037;-81
2022/08/08 12:46:33;;;;;;;1.23;0.20;;;26.00;91.90;;;;;;5035044;28;20499;-82
2022/08/08 12:49:01;;;;;;;4.63;0.75;;;26.30;90.80;;;;;;5042393;28;20570;-81
2022/08/08 12:51:37;;;;;;;2.10;0.50;;;26.40;85.50;;;;;;5057417;28;20072;-81
2022/08/08 12:54:03;;;;;;;1.80;0.20;;;26.50;85.50;;;;;;5055306;28;20365;-81
2022/08/08 12:56:37;;;;;;;0.75;0.20;;;26.70;81.70;;;;;;5054861;28;20091;-81
2022/08/08 12:59:19;;;;;;;1.65;0.50;;;26.90;79.30;;;;;;5053891;28;20442;-81
2022/08/08 13:01:59;;;;;;;2.10;0.20;;;27.30;79.70;;;;;;5054470;28;20047;-81
2022/08/08 13:04:27;;;;;;;1.23;0.40;;;27.40;76.40;;;;;;5053598;28;20037;-82
2022/08/08 13:07:08;;;;;;;1.75;0.10;;;27.30;75.80;;;;;;5038252;28;20053;-81
2022/08/08 13:09:39;;;;;;;1.98;0.20;;;27.30;73.70;;;;;;5054216;28;20048;-82
2022/08/08 13:12:11;;;;;;;0.93;0.35;;;26.80;75.50;;;;;;5054222;28;20048;-82
2022/08/08 13:14:46;;;;;;;1.25;0.20;;;26.50;76.10;;;;;;5053537;28;20098;-81
2022/08/08 13:17:12;;;;;;;3.83;0.43;;;26.40;82.40;;;;;;5054297;28;20051;-81
2022/08/08 13:19:38;;;;;;;2.53;0.20;;;26.20;82.90;;;;;;5053954;28;20068;-82
2022/08/08 13:22:05;;;;;;;1.27;0.20;;;26.00;85.20;;;;;;5057317;28;20056;-82
2022/08/08 13:24:34;;;;;;;2.33;0.20;;;25.80;86.20;;;;;;5054046;28;20049;-82
2022/08/08 13:27:02;;;;;;;2.35;0.30;;;25.60;88.60;;;;;;5054419;28;20106;-82
2022/08/08 13:29:28;;;;;;;2.25;0.65;;;25.40;91.00;;;;;;5054431;28;20091;-82
2022/08/08 13:31:54;;;;;;;1.40;0.25;;;25.20;91.30;;;;;;5053229;28;20044;-82
2022/08/08 13:34:24;;;;;;;2.22;0.40;;;24.90;92.10;;;;;;5054445;28;20090;-81
2022/08/08 13:36:51;;;;;;;1.95;0.50;;;24.50;93.60;;;;;;5055187;28;20048;-82
2022/08/08 13:39:18;;;;;;;2.28;0.60;;;24.10;95.00;;;;;;5054743;28;20044;-83
2022/08/08 13:41:45;;;;;;;1.25;0.40;;;23.70;96.30;;;;;;5055880;28;20423;-83
2022/08/08 13:44:11;;;;;;;1.35;0.30;;;23.50;96.30;;;;;;5054468;28;20040;-82
2022/08/08 13:46:37;;;;;;;2.08;0.30;;;23.40;96.50;;;;;;5053775;28;20134;-82
2022/08/08 13:49:14;;;;;;;1.85;0.22;;;23.40;96.70;;;;;;5053535;28;20524;-81
2022/08/08 13:51:39;;;;;;;0.90;0.20;;;23.30;96.60;;;;;;5053300;28;20048;-82